Ana Sayfa
METAR-TAF:

METAR-TAF

Havaalanları :

Farmville Regional Airport

Farmville, Virginia, Amerika Birleşik Devletleri

Enlem: 37-21N, Boylam: 078-26W, yükseklik: 125 m

Güncel hava durumu gözlemi

Rapor saat 11:55 UTC de 14 dakika önce yapıldı.
Sakin rüzgar
Sıcaklık 25°C
Nem 89%
Basınç 1015 hPa
Görüş mesafesi: 16.1 km
Açık gökyüzü

METAR: KFVX 191155Z AUTO 00000KT 10SM CLR 25/23 A2997 RMK AO2 70038 T02450231 10245 20213

Saat: 08:09 (12:09 UTC)


TAF: eksik

4.000'den fazla havaalanı için hava durumu gözlemleri ve tahminleri (METAR ve TAF raporları).

Kullanılabilir istasyonlar harita üzerinde sarı ve kırmızı noktalarla gösterilir.

İstasyonun adını görmek için fareyi noktanın üzerinde gezdirin.

Sonrasında hava gözlem ve tahminlerini görmek için tıklayın.

Haritayı değiştirmek için: yaklaştırmak için siyah artı işaretli yeşil düğmeye ve uzaklaştırmak için de eksi işaretli düğmeye hızla tıklayın; bitişik haritalar için yeşil okları kullanın.


METAR-TAF: